createdAt,value
2022-11-10T00:02:02.900Z,101421.00
2022-11-10T00:04:30.967Z,101425.00
2022-11-10T00:06:58.300Z,101430.00
2022-11-10T00:09:25.731Z,101429.00
2022-11-10T00:11:53.377Z,101438.00
2022-11-10T00:14:39.450Z,101445.00
2022-11-10T00:17:06.932Z,101429.00
2022-11-10T00:19:35.358Z,101435.00
2022-11-10T00:22:03.472Z,101446.00
2022-11-10T00:24:31.014Z,101458.00
2022-11-10T00:26:58.342Z,101454.00
2022-11-10T00:29:25.977Z,101461.00
2022-11-10T00:31:53.609Z,101450.00
2022-11-10T00:34:20.813Z,101473.00
2022-11-10T00:36:48.168Z,101472.00
2022-11-10T00:39:15.616Z,101476.00
2022-11-10T00:41:43.690Z,101464.00
2022-11-10T00:44:10.996Z,101468.00
2022-11-10T00:46:40.194Z,101473.00
2022-11-10T00:49:07.653Z,101473.00
2022-11-10T00:51:34.855Z,101482.00
2022-11-10T00:54:02.225Z,101474.00
2022-11-10T00:56:29.542Z,101479.00
2022-11-10T00:58:57.132Z,101487.00
2022-11-10T01:01:26.129Z,101471.00
2022-11-10T01:03:54.784Z,101472.00
2022-11-10T01:06:22.849Z,101478.00
2022-11-10T01:08:50.770Z,101472.00
2022-11-10T01:11:23.105Z,101478.00
2022-11-10T01:13:52.859Z,101487.00
2022-11-10T01:16:27.466Z,101490.00
2022-11-10T01:18:59.042Z,101496.00
2022-11-10T01:22:04.122Z,101494.00
2022-11-10T01:24:31.434Z,101486.00
2022-11-10T01:26:58.731Z,101487.00
2022-11-10T01:29:26.004Z,101497.00
2022-11-10T01:31:53.734Z,101501.00
2022-11-10T01:34:21.200Z,101502.00
2022-11-10T01:36:48.638Z,101513.00
2022-11-10T01:39:15.984Z,101520.00
2022-11-10T01:41:43.470Z,101518.00
2022-11-10T01:44:21.438Z,101532.00
2022-11-10T01:46:48.770Z,101522.00
2022-11-10T01:49:26.123Z,101534.00
2022-11-10T01:52:12.095Z,101525.00
2022-11-10T01:54:48.481Z,101533.00
2022-11-10T01:57:17.060Z,101533.00
2022-11-10T01:59:50.780Z,101540.00
2022-11-10T02:02:29.547Z,101544.00
2022-11-10T02:04:57.199Z,101546.00
2022-11-10T02:07:26.270Z,101546.00
2022-11-10T02:09:54.274Z,101554.00
2022-11-10T02:12:37.367Z,101556.00
2022-11-10T02:15:13.472Z,101546.00
2022-11-10T02:17:42.648Z,101555.00
2022-11-10T02:20:13.382Z,101558.00
2022-11-10T02:22:41.056Z,101533.00
2022-11-10T02:25:09.169Z,101548.00
2022-11-10T02:27:37.053Z,101536.00
2022-11-10T02:30:05.728Z,101538.00
2022-11-10T02:32:33.175Z,101530.00
2022-11-10T02:35:00.391Z,101534.00
2022-11-10T02:37:27.652Z,101541.00
2022-11-10T02:39:54.987Z,101542.00
2022-11-10T02:42:22.335Z,101554.00
2022-11-10T02:44:50.154Z,101551.00
2022-11-10T02:47:17.694Z,101561.00
2022-11-10T02:49:45.499Z,101560.00
2022-11-10T02:52:12.678Z,101563.00
2022-11-10T02:54:39.999Z,101592.00
2022-11-10T02:57:07.248Z,101601.00
2022-11-10T02:59:34.366Z,101585.00
2022-11-10T03:02:04.315Z,101585.00
2022-11-10T03:04:31.980Z,101589.00
2022-11-10T03:06:59.314Z,101584.00
2022-11-10T03:09:26.602Z,101576.00
2022-11-10T03:11:53.975Z,101583.00
2022-11-10T03:14:21.302Z,101572.00
2022-11-10T03:16:48.433Z,101591.00
2022-11-10T03:19:15.528Z,101570.00
2022-11-10T03:21:43.150Z,101598.00
2022-11-10T03:24:11.470Z,101590.00
2022-11-10T03:26:38.735Z,101618.00
2022-11-10T03:29:05.836Z,101603.00
2022-11-10T03:31:33.268Z,101603.00
2022-11-10T03:34:00.421Z,101598.00
2022-11-10T03:36:27.628Z,101606.00
2022-11-10T03:38:54.793Z,101607.00
2022-11-10T03:41:22.054Z,101631.00
2022-11-10T03:43:50.701Z,101625.00
2022-11-10T03:46:18.567Z,101624.00
2022-11-10T03:48:51.893Z,101631.00
2022-11-10T03:51:21.022Z,101640.00
2022-11-10T03:53:50.683Z,101644.00
2022-11-10T03:56:17.878Z,101652.00
2022-11-10T03:58:45.034Z,101659.00
2022-11-10T04:01:12.334Z,101646.00
2022-11-10T04:03:39.589Z,101661.00
2022-11-10T04:06:25.323Z,101659.00
2022-11-10T04:09:01.405Z,101670.00
2022-11-10T04:11:49.093Z,101677.00
2022-11-10T04:14:35.652Z,101670.00
2022-11-10T04:17:03.625Z,101682.00
2022-11-10T04:19:31.185Z,101668.00
2022-11-10T04:22:00.977Z,101683.00
2022-11-10T04:24:28.109Z,101682.00
2022-11-10T04:26:55.174Z,101687.00
2022-11-10T04:29:22.663Z,101695.00
2022-11-10T04:31:49.768Z,101694.00
2022-11-10T04:34:16.942Z,101699.00
2022-11-10T04:36:46.291Z,101703.00
2022-11-10T04:39:13.746Z,101694.00
2022-11-10T04:41:40.931Z,101700.00
2022-11-10T04:44:08.535Z,101715.00
2022-11-10T04:46:39.563Z,101717.00
2022-11-10T04:49:07.906Z,101725.00
2022-11-10T04:51:38.592Z,101734.00
2022-11-10T04:54:08.009Z,101737.00
2022-11-10T04:56:35.399Z,101740.00
2022-11-10T04:59:02.738Z,101746.00
2022-11-10T05:01:30.084Z,101752.00
2022-11-10T05:03:57.991Z,101754.00
2022-11-10T05:06:25.823Z,101761.00
2022-11-10T05:08:55.837Z,101758.00
2022-11-10T05:11:23.040Z,101763.00
2022-11-10T05:13:50.189Z,101772.00
2022-11-10T05:16:17.980Z,101762.00
2022-11-10T05:18:45.569Z,101779.00
2022-11-10T05:21:12.839Z,101772.00
2022-11-10T05:23:40.541Z,101762.00
2022-11-10T05:26:17.645Z,101776.00
2022-11-10T05:28:46.597Z,101764.00
2022-11-10T05:31:14.351Z,101789.00
2022-11-10T05:33:41.799Z,101776.00
2022-11-10T05:36:10.850Z,101794.00
2022-11-10T05:38:43.282Z,101785.00
2022-11-10T05:41:11.519Z,101782.00
2022-11-10T05:43:38.648Z,101802.00
2022-11-10T05:46:05.930Z,101781.00
2022-11-10T05:48:33.208Z,101797.00
2022-11-10T05:51:00.491Z,101790.00
2022-11-10T05:53:28.075Z,101798.00
2022-11-10T05:55:55.331Z,101795.00
2022-11-10T05:58:22.536Z,101791.00
2022-11-10T06:00:49.999Z,101801.00
2022-11-10T06:03:20.413Z,101798.00
2022-11-10T06:05:48.169Z,101812.00
2022-11-10T06:08:15.836Z,101796.00
2022-11-10T06:10:43.134Z,101790.00
2022-11-10T06:13:11.412Z,101796.00
2022-11-10T06:15:38.675Z,101804.00
2022-11-10T06:18:06.531Z,101801.00
2022-11-10T06:20:33.996Z,101800.00
2022-11-10T06:23:04.116Z,101821.00
2022-11-10T06:25:35.410Z,101811.00
2022-11-10T06:28:03.908Z,101829.00
2022-11-10T06:30:35.226Z,101829.00
2022-11-10T06:33:02.993Z,101843.00
2022-11-10T06:35:31.603Z,101851.00
2022-11-10T06:38:07.371Z,101854.00
2022-11-10T06:40:35.402Z,101839.00
2022-11-10T06:44:00.941Z,101845.00
2022-11-10T06:46:28.394Z,101856.00
2022-11-10T06:48:55.559Z,101856.00
2022-11-10T06:51:22.834Z,101863.00
2022-11-10T06:53:50.412Z,101870.00
2022-11-10T06:57:35.018Z,101872.00
2022-11-10T07:00:02.525Z,101880.00
2022-11-10T07:02:29.804Z,101876.00
2022-11-10T07:04:57.447Z,101889.00
2022-11-10T07:07:24.696Z,101899.00
2022-11-10T07:09:55.537Z,101899.00
2022-11-10T07:12:23.409Z,101897.00
2022-11-10T07:14:53.528Z,101906.00
2022-11-10T07:17:25.174Z,101916.00
2022-11-10T07:19:52.532Z,101902.00
2022-11-10T07:22:20.140Z,101914.00
2022-11-10T07:24:47.394Z,101923.00
2022-11-10T07:27:14.889Z,101918.00
2022-11-10T07:29:45.266Z,101928.00
2022-11-10T07:32:13.135Z,101926.00
2022-11-10T07:34:40.440Z,101917.00
2022-11-10T07:37:07.875Z,101931.00
2022-11-10T07:39:35.361Z,101928.00
2022-11-10T07:42:02.729Z,101956.00
2022-11-10T07:44:29.901Z,101952.00
2022-11-10T07:46:57.213Z,101956.00
2022-11-10T07:49:24.608Z,101953.00
2022-11-10T07:51:54.341Z,101956.00
2022-11-10T07:54:21.731Z,101974.00
2022-11-10T07:56:49.037Z,101961.00
2022-11-10T07:59:16.456Z,101969.00
2022-11-10T08:01:43.816Z,101973.00
2022-11-10T08:04:11.668Z,101964.00
2022-11-10T08:06:41.540Z,101974.00
2022-11-10T08:09:08.810Z,101976.00
2022-11-10T08:11:36.040Z,101986.00
2022-11-10T08:14:05.101Z,101986.00
2022-11-10T08:16:32.454Z,101976.00
2022-11-10T08:18:59.706Z,101984.00
2022-11-10T08:21:27.004Z,101983.00
2022-11-10T08:23:54.151Z,101993.00
2022-11-10T08:26:21.430Z,101995.00
2022-11-10T08:28:49.049Z,102001.00
2022-11-10T08:31:16.478Z,102004.00
2022-11-10T08:33:43.756Z,101993.00
2022-11-10T08:36:10.921Z,102009.00
2022-11-10T08:38:38.118Z,102021.00
2022-11-10T08:41:05.618Z,102011.00
2022-11-10T08:43:33.107Z,102013.00
2022-11-10T08:46:01.993Z,102020.00
2022-11-10T08:48:31.998Z,102021.00
2022-11-10T08:51:03.950Z,102011.00
2022-11-10T08:53:31.460Z,102009.00
2022-11-10T08:55:59.876Z,102013.00
2022-11-10T08:58:27.771Z,101996.00
2022-11-10T09:00:59.620Z,102007.00
2022-11-10T09:03:30.429Z,102004.00
2022-11-10T09:05:58.980Z,102003.00
2022-11-10T09:08:26.801Z,102005.00
2022-11-10T09:10:54.713Z,102016.00
2022-11-10T09:13:27.822Z,102027.00
2022-11-10T09:16:02.083Z,102025.00
2022-11-10T09:18:32.271Z,102018.00
2022-11-10T09:21:00.106Z,102029.00
2022-11-10T09:23:28.847Z,102033.00
2022-11-10T09:25:57.840Z,102028.00
2022-11-10T09:28:25.216Z,102025.00
2022-11-10T09:30:54.665Z,102029.00
2022-11-10T09:33:22.567Z,102029.00
2022-11-10T09:35:51.413Z,102034.00
2022-11-10T09:38:18.974Z,102044.00
2022-11-10T09:41:03.111Z,102051.00
2022-11-10T09:44:23.466Z,102052.00
2022-11-10T09:47:05.056Z,102061.00
2022-11-10T09:49:45.171Z,102068.00
2022-11-10T09:52:14.180Z,102074.00
2022-11-10T09:54:46.322Z,102067.00
2022-11-10T09:57:25.479Z,102067.00
2022-11-10T09:59:54.040Z,102068.00
2022-11-10T10:02:37.064Z,102068.00
2022-11-10T10:05:53.913Z,102070.00
2022-11-10T10:09:12.099Z,102070.00
2022-11-10T10:12:37.038Z,102073.00
2022-11-10T10:15:22.229Z,102066.00
2022-11-10T10:18:07.864Z,102078.00
2022-11-10T10:21:27.901Z,102070.00
2022-11-10T10:24:10.429Z,102050.00
2022-11-10T10:26:51.125Z,102054.00
2022-11-10T10:29:37.006Z,102055.00
2022-11-10T10:32:10.280Z,102054.00
2022-11-10T10:34:37.998Z,102050.00
2022-11-10T10:37:05.616Z,102052.00
2022-11-10T10:39:46.747Z,102070.00
2022-11-10T10:42:33.547Z,102061.00
2022-11-10T10:45:27.134Z,102071.00
2022-11-10T10:47:57.341Z,102077.00
2022-11-10T10:50:36.765Z,102074.00
2022-11-10T10:53:20.483Z,102072.00
2022-11-10T10:56:05.048Z,102069.00
2022-11-10T10:58:48.323Z,102087.00
2022-11-10T11:01:18.686Z,102096.00
2022-11-10T11:03:50.182Z,102086.00
2022-11-10T11:06:18.290Z,102089.00
2022-11-10T11:08:59.672Z,102086.00
2022-11-10T11:11:34.490Z,102100.00
2022-11-10T11:14:29.108Z,102096.00
2022-11-10T11:17:03.770Z,102106.00
2022-11-10T11:19:37.801Z,102109.00
2022-11-10T11:22:57.242Z,102102.00
2022-11-10T11:25:38.477Z,102103.00
2022-11-10T11:28:52.055Z,102102.00
2022-11-10T11:32:34.771Z,102105.00
2022-11-10T11:35:32.019Z,102125.00
2022-11-10T11:38:24.800Z,102119.00
2022-11-10T11:41:16.713Z,102113.00
2022-11-10T11:44:05.454Z,102117.00
2022-11-10T11:46:51.151Z,102106.00
2022-11-10T11:49:56.443Z,102110.00
2022-11-10T11:52:58.882Z,102118.00
2022-11-10T11:55:54.998Z,102139.00
2022-11-10T11:58:54.137Z,102140.00
2022-11-10T12:02:05.250Z,102142.00
2022-11-10T12:05:16.001Z,102142.00
2022-11-10T12:08:08.866Z,102142.00
2022-11-10T12:11:04.800Z,102144.00
2022-11-10T12:14:00.587Z,102153.00
2022-11-10T12:16:34.149Z,102158.00
2022-11-10T12:19:48.651Z,102167.00
2022-11-10T12:22:53.050Z,102159.00
2022-11-10T12:25:48.445Z,102149.00
2022-11-10T12:28:34.665Z,102158.00
2022-11-10T12:31:10.406Z,102161.00
2022-11-10T12:33:45.889Z,102164.00
2022-11-10T12:36:17.881Z,102174.00
2022-11-10T12:39:36.695Z,102174.00
2022-11-10T12:42:08.239Z,102174.00
2022-11-10T12:44:57.647Z,102167.00
2022-11-10T12:47:31.719Z,102173.00
2022-11-10T12:50:26.607Z,102174.00
2022-11-10T12:53:12.691Z,102179.00
2022-11-10T12:55:58.154Z,102188.00
2022-11-10T12:58:27.144Z,102184.00
2022-11-10T13:01:12.932Z,102184.00
2022-11-10T13:03:56.096Z,102174.00
2022-11-10T13:06:36.035Z,102172.00
2022-11-10T13:09:04.208Z,102176.00
2022-11-10T13:11:34.316Z,102172.00
2022-11-10T13:14:24.013Z,102171.00
2022-11-10T13:16:54.533Z,102171.00
2022-11-10T13:19:21.632Z,102185.00
2022-11-10T13:21:51.853Z,102184.00
2022-11-10T13:24:30.839Z,102181.00
2022-11-10T13:27:33.154Z,102191.00
2022-11-10T13:30:01.282Z,102185.00
2022-11-10T13:32:34.341Z,102193.00
2022-11-10T13:35:29.411Z,102193.00
2022-11-10T13:38:00.027Z,102205.00
2022-11-10T13:40:33.146Z,102207.00
2022-11-10T13:43:00.333Z,102203.00
2022-11-10T13:45:37.229Z,102204.00
2022-11-10T13:48:13.290Z,102196.00
2022-11-10T13:50:52.692Z,102204.00
2022-11-10T13:53:34.832Z,102204.00
2022-11-10T13:56:23.228Z,102194.00
2022-11-10T13:58:50.599Z,102198.00
2022-11-10T14:01:17.835Z,102197.00
2022-11-10T14:03:48.243Z,102205.00
2022-11-10T14:06:47.104Z,102199.00
2022-11-10T14:09:39.983Z,102199.00
2022-11-10T14:12:30.708Z,102200.00
2022-11-10T14:15:19.204Z,102212.00
2022-11-10T14:17:56.018Z,102202.00
2022-11-10T14:20:44.397Z,102208.00
2022-11-10T14:23:33.816Z,102200.00
2022-11-10T14:26:06.930Z,102202.00
2022-11-10T14:28:38.152Z,102199.00
2022-11-10T14:31:06.256Z,102195.00
2022-11-10T14:33:33.598Z,102203.00
2022-11-10T14:36:09.210Z,102205.00
2022-11-10T14:38:44.802Z,102212.00
2022-11-10T14:41:22.659Z,102214.00
2022-11-10T14:44:19.906Z,102220.00
2022-11-10T14:46:47.131Z,102228.00
2022-11-10T14:49:20.884Z,102219.00
2022-11-10T14:51:50.379Z,102225.00
2022-11-10T14:54:30.550Z,102227.00
2022-11-10T14:56:58.165Z,102222.00
2022-11-10T14:59:26.256Z,102214.00
2022-11-10T15:02:00.652Z,102226.00
2022-11-10T15:04:33.127Z,102228.00
2022-11-10T15:07:01.172Z,102231.00
2022-11-10T15:09:32.737Z,102221.00
2022-11-10T15:12:13.385Z,102231.00
2022-11-10T15:14:45.769Z,102228.00
2022-11-10T15:17:16.113Z,102228.00
2022-11-10T15:19:46.362Z,102220.00
2022-11-10T15:22:18.069Z,102221.00
2022-11-10T15:24:48.344Z,102223.00
2022-11-10T15:27:31.824Z,102236.00
2022-11-10T15:30:02.603Z,102244.00
2022-11-10T15:32:43.793Z,102249.00
2022-11-10T15:35:24.562Z,102251.00
2022-11-10T15:38:28.970Z,102242.00
2022-11-10T15:41:27.310Z,102247.00
2022-11-10T15:43:54.856Z,102236.00
2022-11-10T15:46:26.843Z,102246.00
2022-11-10T15:48:54.062Z,102239.00
2022-11-10T15:51:26.126Z,102248.00
2022-11-10T15:53:54.671Z,102263.00
2022-11-10T15:56:25.004Z,102265.00
2022-11-10T15:59:02.058Z,102276.00
2022-11-10T16:01:31.617Z,102276.00
2022-11-10T16:03:59.469Z,102275.00
2022-11-10T16:06:27.647Z,102278.00
2022-11-10T16:08:54.930Z,102286.00
2022-11-10T16:11:23.757Z,102300.00
2022-11-10T16:13:53.164Z,102302.00
2022-11-10T16:16:20.775Z,102295.00
2022-11-10T16:18:47.949Z,102302.00
2022-11-10T16:21:21.709Z,102300.00
2022-11-10T16:23:49.633Z,102295.00
2022-11-10T16:26:23.832Z,102301.00
2022-11-10T16:28:51.343Z,102308.00
2022-11-10T16:31:24.445Z,102298.00
2022-11-10T16:33:53.252Z,102309.00
2022-11-10T16:36:36.960Z,102301.00
2022-11-10T16:39:15.038Z,102297.00
2022-11-10T16:41:42.848Z,102300.00
2022-11-10T16:44:15.752Z,102315.00
2022-11-10T16:46:47.787Z,102302.00
2022-11-10T16:49:35.473Z,102309.00
2022-11-10T16:52:15.482Z,102314.00
2022-11-10T16:54:43.133Z,102317.00
2022-11-10T16:57:17.463Z,102315.00
2022-11-10T16:59:46.140Z,102306.00
2022-11-10T17:02:33.768Z,102309.00
2022-11-10T17:05:01.202Z,102332.00
2022-11-10T17:07:29.567Z,102317.00
2022-11-10T17:09:59.109Z,102327.00
2022-11-10T17:12:26.471Z,102332.00
2022-11-10T17:14:53.869Z,102328.00
2022-11-10T17:17:21.695Z,102312.00
2022-11-10T17:19:51.645Z,102318.00
2022-11-10T17:22:21.934Z,102334.00
2022-11-10T17:24:56.712Z,102338.00
2022-11-10T17:27:43.361Z,102357.00
2022-11-10T17:30:13.340Z,102355.00
2022-11-10T17:33:03.669Z,102365.00
2022-11-10T17:35:28.434Z,102366.00
2022-11-10T17:37:59.810Z,102369.00
2022-11-10T17:40:29.544Z,102367.00
2022-11-10T17:42:59.838Z,102365.00
2022-11-10T17:45:35.240Z,102351.00
2022-11-10T17:48:02.702Z,102358.00
2022-11-10T17:50:32.661Z,102359.00
2022-11-10T17:53:25.700Z,102378.00
2022-11-10T17:55:53.852Z,102387.00
2022-11-10T17:58:21.374Z,102391.00
2022-11-10T18:00:49.190Z,102393.00
2022-11-10T18:03:22.897Z,102384.00
2022-11-10T18:05:50.650Z,102386.00
2022-11-10T18:08:18.534Z,102395.00
2022-11-10T18:10:53.039Z,102394.00
2022-11-10T18:13:39.540Z,102408.00
2022-11-10T18:16:11.249Z,102403.00
2022-11-10T18:18:39.541Z,102395.00
2022-11-10T18:21:07.836Z,102397.00
2022-11-10T18:23:37.037Z,102392.00
2022-11-10T18:26:09.294Z,102400.00
2022-11-10T18:28:37.021Z,102392.00
2022-11-10T18:31:13.754Z,102418.00
2022-11-10T18:33:41.054Z,102411.00
2022-11-10T18:36:09.133Z,102421.00
2022-11-10T18:38:36.326Z,102430.00
2022-11-10T18:41:23.999Z,102430.00
2022-11-10T18:43:51.831Z,102431.00
2022-11-10T18:46:19.035Z,102418.00
2022-11-10T18:48:47.205Z,102420.00
2022-11-10T18:51:15.896Z,102419.00
2022-11-10T18:53:45.351Z,102412.00
2022-11-10T18:56:14.558Z,102425.00
2022-11-10T18:58:42.597Z,102421.00
2022-11-10T19:01:11.903Z,102423.00
2022-11-10T19:03:39.145Z,102426.00
2022-11-10T19:06:06.971Z,102435.00
2022-11-10T19:08:34.311Z,102432.00
2022-11-10T19:11:05.244Z,102435.00
2022-11-10T19:13:32.574Z,102445.00
2022-11-10T19:16:06.609Z,102418.00
2022-11-10T19:18:35.434Z,102436.00
2022-11-10T19:21:16.197Z,102425.00
2022-11-10T19:23:44.328Z,102426.00
2022-11-10T19:26:22.737Z,102429.00
2022-11-10T19:28:51.032Z,102428.00
2022-11-10T19:31:19.757Z,102428.00
2022-11-10T19:33:47.366Z,102418.00
2022-11-10T19:36:22.336Z,102409.00
2022-11-10T19:38:49.740Z,102427.00
2022-11-10T19:41:22.344Z,102427.00
2022-11-10T19:43:49.701Z,102420.00
2022-11-10T19:46:24.560Z,102423.00
2022-11-10T19:48:52.121Z,102424.00
2022-11-10T19:51:20.399Z,102426.00
2022-11-10T19:53:54.938Z,102423.00
2022-11-10T19:56:26.256Z,102424.00
2022-11-10T19:58:56.548Z,102429.00
2022-11-10T20:01:24.530Z,102415.00
2022-11-10T20:03:52.189Z,102418.00
2022-11-10T20:06:23.232Z,102410.00
2022-11-10T20:08:51.113Z,102428.00
2022-11-10T20:11:23.468Z,102430.00
2022-11-10T20:13:55.172Z,102409.00
2022-11-10T20:16:23.868Z,102424.00
2022-11-10T20:18:51.552Z,102435.00
2022-11-10T20:21:24.132Z,102449.00
2022-11-10T20:23:56.911Z,102449.00
2022-11-10T20:26:25.751Z,102441.00
2022-11-10T20:28:53.258Z,102446.00
2022-11-10T20:31:26.412Z,102463.00
2022-11-10T20:34:01.442Z,102467.00
2022-11-10T20:36:31.202Z,102454.00
2022-11-10T20:39:00.721Z,102474.00
2022-11-10T20:41:31.368Z,102469.00
2022-11-10T20:44:01.063Z,102472.00
2022-11-10T20:49:15.914Z,102454.00
2022-11-10T20:51:43.765Z,102476.00
2022-11-10T20:54:11.222Z,102466.00
2022-11-10T20:56:38.609Z,102460.00
2022-11-10T20:59:05.894Z,102467.00
2022-11-10T21:01:33.825Z,102466.00
2022-11-10T21:04:03.382Z,102474.00
2022-11-10T21:06:30.772Z,102474.00
2022-11-10T21:08:58.106Z,102476.00
2022-11-10T21:11:44.252Z,102489.00
2022-11-10T21:14:11.768Z,102484.00
2022-11-10T21:16:42.186Z,102490.00
2022-11-10T21:19:09.636Z,102500.00
2022-11-10T21:21:37.614Z,102505.00
2022-11-10T21:24:07.576Z,102487.00
2022-11-10T21:26:36.511Z,102506.00
2022-11-10T21:29:05.241Z,102504.00
2022-11-10T21:31:32.829Z,102496.00
2022-11-10T21:34:01.203Z,102509.00
2022-11-10T21:36:29.837Z,102499.00
2022-11-10T21:38:59.121Z,102505.00
2022-11-10T21:41:28.370Z,102498.00
2022-11-10T21:43:55.990Z,102493.00
2022-11-10T21:46:27.042Z,102478.00
2022-11-10T21:48:57.475Z,102476.00
2022-11-10T21:51:25.609Z,102483.00
2022-11-10T21:53:53.143Z,102475.00
2022-11-10T21:56:20.775Z,102483.00
2022-11-10T21:58:48.401Z,102495.00
2022-11-10T22:01:19.652Z,102499.00
2022-11-10T22:03:47.979Z,102483.00
2022-11-10T22:06:18.575Z,102493.00
2022-11-10T22:08:47.962Z,102501.00
2022-11-10T22:11:38.160Z,102501.00
2022-11-10T22:14:33.314Z,102503.00
2022-11-10T22:17:19.099Z,102512.00
2022-11-10T22:19:48.840Z,102511.00
2022-11-10T22:22:19.249Z,102505.00
2022-11-10T22:24:46.922Z,102512.00
2022-11-10T22:27:14.275Z,102518.00
2022-11-10T22:29:41.536Z,102520.00
2022-11-10T22:32:09.185Z,102520.00
2022-11-10T22:34:36.743Z,102518.00
2022-11-10T22:37:04.092Z,102517.00
2022-11-10T22:39:50.490Z,102527.00
2022-11-10T22:42:36.567Z,102521.00
2022-11-10T22:45:04.213Z,102524.00
2022-11-10T22:47:51.976Z,102522.00
2022-11-10T22:50:19.419Z,102524.00
2022-11-10T22:52:50.012Z,102528.00
2022-11-10T22:55:17.686Z,102536.00
2022-11-10T22:57:45.183Z,102544.00
2022-11-10T23:00:13.769Z,102539.00
2022-11-10T23:02:41.174Z,102532.00
2022-11-10T23:05:54.950Z,102554.00
2022-11-10T23:08:23.720Z,102547.00
2022-11-10T23:11:01.397Z,102555.00
2022-11-10T23:13:29.363Z,102557.00
2022-11-10T23:16:35.260Z,102563.00
2022-11-10T23:19:03.890Z,102562.00
2022-11-10T23:21:32.023Z,102559.00
2022-11-10T23:23:59.331Z,102552.00
2022-11-10T23:26:30.343Z,102539.00
2022-11-10T23:28:57.885Z,102555.00
2022-11-10T23:31:28.735Z,102559.00
2022-11-10T23:33:58.091Z,102564.00
2022-11-10T23:37:23.360Z,102579.00
2022-11-10T23:39:50.810Z,102591.00
2022-11-10T23:42:18.566Z,102599.00
2022-11-10T23:44:46.062Z,102587.00
2022-11-10T23:47:13.498Z,102599.00
2022-11-10T23:49:40.777Z,102604.00
2022-11-10T23:52:08.343Z,102601.00
2022-11-10T23:54:35.747Z,102601.00
2022-11-10T23:57:03.434Z,102598.00
2022-11-10T23:59:30.888Z,102602.00
